sensor_id;sensor_type;location;lat;lon;timestamp;temperature;humidity
71175;DHT22;58876;51.994;4.472;2022-12-18T00:01:57;-1.52;85.00
71175;DHT22;58876;51.994;4.472;2022-12-18T00:04:25;-1.53;85.29
71175;DHT22;58876;51.994;4.472;2022-12-18T00:06:51;-1.56;84.95
71175;DHT22;58876;51.994;4.472;2022-12-18T00:09:17;-1.35;84.83
71175;DHT22;58876;51.994;4.472;2022-12-18T00:11:42;-1.32;84.28
71175;DHT22;58876;51.994;4.472;2022-12-18T00:14:11;-1.35;83.90
71175;DHT22;58876;51.994;4.472;2022-12-18T00:16:37;-1.24;84.22
71175;DHT22;58876;51.994;4.472;2022-12-18T00:19:03;-1.19;83.67
71175;DHT22;58876;51.994;4.472;2022-12-18T00:21:33;-1.08;83.14
71175;DHT22;58876;51.994;4.472;2022-12-18T00:23:59;-1.12;82.74
71175;DHT22;58876;51.994;4.472;2022-12-18T00:26:29;-1.18;82.77
71175;DHT22;58876;51.994;4.472;2022-12-18T00:28:55;-1.18;82.52
71175;DHT22;58876;51.994;4.472;2022-12-18T00:31:24;-1.28;82.62
71175;DHT22;58876;51.994;4.472;2022-12-18T00:33:50;-1.39;82.83
71175;DHT22;58876;51.994;4.472;2022-12-18T00:36:18;-1.48;83.20
71175;DHT22;58876;51.994;4.472;2022-12-18T00:38:45;-1.46;83.43
71175;DHT22;58876;51.994;4.472;2022-12-18T00:41:13;-1.55;83.26
71175;DHT22;58876;51.994;4.472;2022-12-18T00:43:59;-1.50;83.55
71175;DHT22;58876;51.994;4.472;2022-12-18T00:46:24;-1.53;83.46
71175;DHT22;58876;51.994;4.472;2022-12-18T00:48:50;-1.50;83.33
71175;DHT22;58876;51.994;4.472;2022-12-18T00:51:15;-1.42;83.22
71175;DHT22;58876;51.994;4.472;2022-12-18T00:53:41;-1.32;82.78
71175;DHT22;58876;51.994;4.472;2022-12-18T00:56:06;-1.43;82.59
71175;DHT22;58876;51.994;4.472;2022-12-18T00:58:31;-1.36;82.74
71175;DHT22;58876;51.994;4.472;2022-12-18T01:00:57;-1.28;82.52
71175;DHT22;58876;51.994;4.472;2022-12-18T01:03:22;-1.22;82.15
71175;DHT22;58876;51.994;4.472;2022-12-18T01:05:48;-1.27;81.92
71175;DHT22;58876;51.994;4.472;2022-12-18T01:08:13;-1.42;82.56
71175;DHT22;58876;51.994;4.472;2022-12-18T01:10:41;-1.42;82.70
71175;DHT22;58876;51.994;4.472;2022-12-18T01:13:07;-1.36;82.50
71175;DHT22;58876;51.994;4.472;2022-12-18T01:15:32;-1.27;82.39
71175;DHT22;58876;51.994;4.472;2022-12-18T01:17:58;-1.32;82.20
71175;DHT22;58876;51.994;4.472;2022-12-18T01:20:23;-1.34;82.07
71175;DHT22;58876;51.994;4.472;2022-12-18T01:22:49;-1.34;82.28
71175;DHT22;58876;51.994;4.472;2022-12-18T01:25:14;-1.28;81.89
71175;DHT22;58876;51.994;4.472;2022-12-18T01:27:40;-1.31;81.66
71175;DHT22;58876;51.994;4.472;2022-12-18T01:30:06;-1.31;81.45
71175;DHT22;58876;51.994;4.472;2022-12-18T01:32:32;-1.34;81.36
71175;DHT22;58876;51.994;4.472;2022-12-18T01:34:57;-1.31;81.54
71175;DHT22;58876;51.994;4.472;2022-12-18T01:37:23;-1.36;81.47
71175;DHT22;58876;51.994;4.472;2022-12-18T01:39:48;-1.48;81.70
71175;DHT22;58876;51.994;4.472;2022-12-18T01:42:15;-1.48;81.74
71175;DHT22;58876;51.994;4.472;2022-12-18T01:47:34;-1.55;81.69
71175;DHT22;58876;51.994;4.472;2022-12-18T01:50:09;-1.71;82.23
71175;DHT22;58876;51.994;4.472;2022-12-18T01:52:40;-1.69;82.61
71175;DHT22;58876;51.994;4.472;2022-12-18T01:55:09;-1.66;82.39
71175;DHT22;58876;51.994;4.472;2022-12-18T01:57:36;-1.59;82.08
71175;DHT22;58876;51.994;4.472;2022-12-18T02:00:15;-1.62;81.85
71175;DHT22;58876;51.994;4.472;2022-12-18T02:02:43;-1.70;82.26
71175;DHT22;58876;51.994;4.472;2022-12-18T02:05:13;-1.69;82.45
71175;DHT22;58876;51.994;4.472;2022-12-18T02:18:35;-1.46;82.01
71175;DHT22;58876;51.994;4.472;2022-12-18T02:22:10;-1.42;81.94
71175;DHT22;58876;51.994;4.472;2022-12-18T02:27:01;-1.46;82.21
71175;DHT22;58876;51.994;4.472;2022-12-18T02:31:59;-1.35;81.79
71175;DHT22;58876;51.994;4.472;2022-12-18T02:34:31;-1.27;81.52
71175;DHT22;58876;51.994;4.472;2022-12-18T02:37:02;-1.19;81.27
71175;DHT22;58876;51.994;4.472;2022-12-18T02:39:30;-1.19;81.10
71175;DHT22;58876;51.994;4.472;2022-12-18T02:41:58;-1.12;80.91
71175;DHT22;58876;51.994;4.472;2022-12-18T02:44:24;-1.15;80.75
71175;DHT22;58876;51.994;4.472;2022-12-18T02:46:52;-1.25;80.66
71175;DHT22;58876;51.994;4.472;2022-12-18T02:52:48;-1.43;81.11
71175;DHT22;58876;51.994;4.472;2022-12-18T02:58:22;-1.63;81.63
71175;DHT22;58876;51.994;4.472;2022-12-18T03:00:58;-1.59;81.85
71175;DHT22;58876;51.994;4.472;2022-12-18T03:03:39;-1.60;81.48
71175;DHT22;58876;51.994;4.472;2022-12-18T03:06:28;-1.59;81.45
71175;DHT22;58876;51.994;4.472;2022-12-18T03:09:09;-1.63;81.26
71175;DHT22;58876;51.994;4.472;2022-12-18T03:11:40;-1.63;81.19
71175;DHT22;58876;51.994;4.472;2022-12-18T03:14:31;-1.62;81.16
71175;DHT22;58876;51.994;4.472;2022-12-18T03:17:02;-1.67;81.28
71175;DHT22;58876;51.994;4.472;2022-12-18T03:19:32;-1.77;81.44
71175;DHT22;58876;51.994;4.472;2022-12-18T03:22:01;-1.89;81.92
71175;DHT22;58876;51.994;4.472;2022-12-18T03:24:31;-1.93;82.39
71175;DHT22;58876;51.994;4.472;2022-12-18T03:27:08;-2.01;82.62
71175;DHT22;58876;51.994;4.472;2022-12-18T03:29:42;-2.04;82.85
71175;DHT22;58876;51.994;4.472;2022-12-18T03:32:19;-2.01;82.70
71175;DHT22;58876;51.994;4.472;2022-12-18T03:34:49;-1.93;82.32
71175;DHT22;58876;51.994;4.472;2022-12-18T03:37:16;-1.97;81.85
71175;DHT22;58876;51.994;4.472;2022-12-18T03:39:41;-1.97;81.90
71175;DHT22;58876;51.994;4.472;2022-12-18T03:45:13;-1.91;81.40
71175;DHT22;58876;51.994;4.472;2022-12-18T03:47:57;-1.95;81.23
71175;DHT22;58876;51.994;4.472;2022-12-18T03:55:59;-2.12;81.33
71175;DHT22;58876;51.994;4.472;2022-12-18T03:58:27;-2.15;81.89
71175;DHT22;58876;51.994;4.472;2022-12-18T04:00:58;-2.15;81.78
71175;DHT22;58876;51.994;4.472;2022-12-18T04:03:27;-2.11;81.66
71175;DHT22;58876;51.994;4.472;2022-12-18T04:05:55;-2.11;81.47
71175;DHT22;58876;51.994;4.472;2022-12-18T04:08:24;-2.02;81.22
71175;DHT22;58876;51.994;4.472;2022-12-18T04:10:50;-2.02;80.96
71175;DHT22;58876;51.994;4.472;2022-12-18T04:13:28;-2.04;80.84
71175;DHT22;58876;51.994;4.472;2022-12-18T04:15:53;-2.01;80.90
71175;DHT22;58876;51.994;4.472;2022-12-18T04:18:19;-2.04;80.74
71175;DHT22;58876;51.994;4.472;2022-12-18T04:20:45;-2.12;80.69
71175;DHT22;58876;51.994;4.472;2022-12-18T04:23:10;-2.18;80.82
71175;DHT22;58876;51.994;4.472;2022-12-18T04:25:36;-2.25;81.08
71175;DHT22;58876;51.994;4.472;2022-12-18T04:28:01;-2.24;81.11
71175;DHT22;58876;51.994;4.472;2022-12-18T04:30:27;-2.24;80.83
71175;DHT22;58876;51.994;4.472;2022-12-18T04:32:52;-2.30;80.79
71175;DHT22;58876;51.994;4.472;2022-12-18T04:35:17;-2.30;81.04
71175;DHT22;58876;51.994;4.472;2022-12-18T04:37:43;-2.28;80.82
71175;DHT22;58876;51.994;4.472;2022-12-18T04:40:09;-2.24;80.72
71175;DHT22;58876;51.994;4.472;2022-12-18T04:42:34;-2.32;80.52
71175;DHT22;58876;51.994;4.472;2022-12-18T04:45:00;-2.32;80.50
71175;DHT22;58876;51.994;4.472;2022-12-18T04:47:25;-2.34;80.51
71175;DHT22;58876;51.994;4.472;2022-12-18T04:49:51;-2.34;80.06
71175;DHT22;58876;51.994;4.472;2022-12-18T04:52:16;-2.37;79.89
71175;DHT22;58876;51.994;4.472;2022-12-18T04:54:41;-2.37;79.91
71175;DHT22;58876;51.994;4.472;2022-12-18T04:57:07;-2.38;79.63
71175;DHT22;58876;51.994;4.472;2022-12-18T04:59:32;-2.38;79.55
71175;DHT22;58876;51.994;4.472;2022-12-18T05:01:58;-2.44;79.49
71175;DHT22;58876;51.994;4.472;2022-12-18T05:04:23;-2.45;79.66
71175;DHT22;58876;51.994;4.472;2022-12-18T05:06:48;-2.49;79.64
71175;DHT22;58876;51.994;4.472;2022-12-18T05:09:14;-2.51;79.59
71175;DHT22;58876;51.994;4.472;2022-12-18T05:11:39;-2.51;79.48
71175;DHT22;58876;51.994;4.472;2022-12-18T05:14:05;-2.52;79.36
71175;DHT22;58876;51.994;4.472;2022-12-18T05:16:30;-2.52;79.37
71175;DHT22;58876;51.994;4.472;2022-12-18T05:18:56;-2.55;79.08
71175;DHT22;58876;51.994;4.472;2022-12-18T05:21:21;-2.58;79.07
71175;DHT22;58876;51.994;4.472;2022-12-18T05:23:47;-2.60;79.10
71175;DHT22;58876;51.994;4.472;2022-12-18T05:26:17;-2.60;79.17
71175;DHT22;58876;51.994;4.472;2022-12-18T05:28:43;-2.62;79.01
71175;DHT22;58876;51.994;4.472;2022-12-18T05:31:09;-2.66;79.14
71175;DHT22;58876;51.994;4.472;2022-12-18T05:33:35;-2.65;79.15
71175;DHT22;58876;51.994;4.472;2022-12-18T05:36:05;-2.66;79.14
71175;DHT22;58876;51.994;4.472;2022-12-18T05:38:34;-2.69;79.34
71175;DHT22;58876;51.994;4.472;2022-12-18T05:40:59;-2.80;79.29
71175;DHT22;58876;51.994;4.472;2022-12-18T05:43:26;-2.81;79.52
71175;DHT22;58876;51.994;4.472;2022-12-18T05:45:53;-2.86;79.50
71175;DHT22;58876;51.994;4.472;2022-12-18T05:48:19;-2.84;79.55
71175;DHT22;58876;51.994;4.472;2022-12-18T05:50:47;-2.90;79.74
71175;DHT22;58876;51.994;4.472;2022-12-18T05:53:14;-2.84;79.80
71175;DHT22;58876;51.994;4.472;2022-12-18T05:55:41;-2.86;79.67
71175;DHT22;58876;51.994;4.472;2022-12-18T05:58:09;-2.83;79.66
71175;DHT22;58876;51.994;4.472;2022-12-18T06:00:37;-2.79;79.52
71175;DHT22;58876;51.994;4.472;2022-12-18T06:03:06;-2.83;79.25
71175;DHT22;58876;51.994;4.472;2022-12-18T06:05:42;-2.86;79.48
71175;DHT22;58876;51.994;4.472;2022-12-18T06:08:08;-2.84;79.39
71175;DHT22;58876;51.994;4.472;2022-12-18T06:10:34;-2.86;79.17
71175;DHT22;58876;51.994;4.472;2022-12-18T06:13:00;-2.80;78.89
71175;DHT22;58876;51.994;4.472;2022-12-18T06:15:25;-2.81;78.87
71175;DHT22;58876;51.994;4.472;2022-12-18T06:17:51;-2.84;78.74
71175;DHT22;58876;51.994;4.472;2022-12-18T06:20:16;-2.83;78.53
71175;DHT22;58876;51.994;4.472;2022-12-18T06:22:42;-2.91;78.61
71175;DHT22;58876;51.994;4.472;2022-12-18T06:25:07;-2.90;78.48
71175;DHT22;58876;51.994;4.472;2022-12-18T06:27:33;-2.89;78.43
71175;DHT22;58876;51.994;4.472;2022-12-18T06:30:00;-2.86;78.30
71175;DHT22;58876;51.994;4.472;2022-12-18T06:32:25;-2.86;78.13
71175;DHT22;58876;51.994;4.472;2022-12-18T06:34:51;-2.84;77.84
71175;DHT22;58876;51.994;4.472;2022-12-18T06:37:16;-2.87;77.73
71175;DHT22;58876;51.994;4.472;2022-12-18T06:39:42;-2.93;77.90
71175;DHT22;58876;51.994;4.472;2022-12-18T06:42:07;-3.00;78.10
71175;DHT22;58876;51.994;4.472;2022-12-18T06:44:33;-3.01;77.88
71175;DHT22;58876;51.994;4.472;2022-12-18T06:46:58;-3.11;78.20
71175;DHT22;58876;51.994;4.472;2022-12-18T06:49:23;-3.07;78.10
71175;DHT22;58876;51.994;4.472;2022-12-18T06:51:49;-3.05;78.01
71175;DHT22;58876;51.994;4.472;2022-12-18T06:54:14;-3.08;77.95
71175;DHT22;58876;51.994;4.472;2022-12-18T06:56:40;-3.12;77.93
71175;DHT22;58876;51.994;4.472;2022-12-18T06:59:05;-3.15;78.06
71175;DHT22;58876;51.994;4.472;2022-12-18T07:01:31;-3.12;77.98
71175;DHT22;58876;51.994;4.472;2022-12-18T07:03:57;-3.18;78.23
71175;DHT22;58876;51.994;4.472;2022-12-18T07:06:24;-3.21;78.26
71175;DHT22;58876;51.994;4.472;2022-12-18T07:08:52;-3.17;78.12
71175;DHT22;58876;51.994;4.472;2022-12-18T07:11:18;-3.15;77.93
71175;DHT22;58876;51.994;4.472;2022-12-18T07:13:45;-3.12;77.66
71175;DHT22;58876;51.994;4.472;2022-12-18T07:16:16;-3.12;77.52
71175;DHT22;58876;51.994;4.472;2022-12-18T07:18:42;-3.14;77.51
71175;DHT22;58876;51.994;4.472;2022-12-18T07:21:11;-3.11;77.44
71175;DHT22;58876;51.994;4.472;2022-12-18T07:23:37;-3.12;77.25
71175;DHT22;58876;51.994;4.472;2022-12-18T07:26:10;-3.10;77.05
71175;DHT22;58876;51.994;4.472;2022-12-18T07:28:36;-3.15;76.86
71175;DHT22;58876;51.994;4.472;2022-12-18T07:31:05;-3.18;76.88
71175;DHT22;58876;51.994;4.472;2022-12-18T07:33:32;-3.22;76.95
71175;DHT22;58876;51.994;4.472;2022-12-18T07:36:05;-3.28;77.15
71175;DHT22;58876;51.994;4.472;2022-12-18T07:38:33;-3.28;77.42
71175;DHT22;58876;51.994;4.472;2022-12-18T07:41:11;-3.21;77.35
71175;DHT22;58876;51.994;4.472;2022-12-18T07:43:38;-3.24;77.38
71175;DHT22;58876;51.994;4.472;2022-12-18T07:46:05;-3.15;77.08
71175;DHT22;58876;51.994;4.472;2022-12-18T07:48:31;-3.15;77.05
71175;DHT22;58876;51.994;4.472;2022-12-18T07:51:00;-3.10;76.97
71175;DHT22;58876;51.994;4.472;2022-12-18T07:53:26;-3.10;76.84
71175;DHT22;58876;51.994;4.472;2022-12-18T07:56:03;-3.10;76.95
71175;DHT22;58876;51.994;4.472;2022-12-18T07:58:30;-3.04;76.74
71175;DHT22;58876;51.994;4.472;2022-12-18T08:01:05;-3.00;76.75
71175;DHT22;58876;51.994;4.472;2022-12-18T08:03:32;-2.97;76.50
71175;DHT22;58876;51.994;4.472;2022-12-18T08:06:02;-2.94;76.30
71175;DHT22;58876;51.994;4.472;2022-12-18T08:08:29;-2.91;76.40
71175;DHT22;58876;51.994;4.472;2022-12-18T08:10:55;-2.96;76.40
71175;DHT22;58876;51.994;4.472;2022-12-18T08:13:21;-2.93;76.24
71175;DHT22;58876;51.994;4.472;2022-12-18T08:16:02;-2.84;76.07
71175;DHT22;58876;51.994;4.472;2022-12-18T08:18:29;-2.77;75.78
71175;DHT22;58876;51.994;4.472;2022-12-18T08:20:55;-2.81;75.81
71175;DHT22;58876;51.994;4.472;2022-12-18T08:23:21;-2.76;75.79
71175;DHT22;58876;51.994;4.472;2022-12-18T08:25:47;-2.72;75.84
71175;DHT22;58876;51.994;4.472;2022-12-18T08:28:12;-2.68;75.64
71175;DHT22;58876;51.994;4.472;2022-12-18T08:30:38;-2.65;75.54
71175;DHT22;58876;51.994;4.472;2022-12-18T08:33:04;-2.56;75.62
71175;DHT22;58876;51.994;4.472;2022-12-18T08:35:29;-2.51;75.46
71175;DHT22;58876;51.994;4.472;2022-12-18T08:37:55;-2.42;75.25
71175;DHT22;58876;51.994;4.472;2022-12-18T08:40:20;-2.39;75.11
71175;DHT22;58876;51.994;4.472;2022-12-18T08:42:46;-2.39;75.17
71175;DHT22;58876;51.994;4.472;2022-12-18T08:45:33;-2.31;75.05
71175;DHT22;58876;51.994;4.472;2022-12-18T08:47:59;-2.22;75.09
71175;DHT22;58876;51.994;4.472;2022-12-18T08:50:24;-2.18;74.66
71175;DHT22;58876;51.994;4.472;2022-12-18T08:52:50;-2.18;74.51
71175;DHT22;58876;51.994;4.472;2022-12-18T08:55:15;-2.14;74.66
71175;DHT22;58876;51.994;4.472;2022-12-18T08:57:41;-2.05;74.49
71175;DHT22;58876;51.994;4.472;2022-12-18T09:00:07;-1.98;74.36
71175;DHT22;58876;51.994;4.472;2022-12-18T09:02:32;-2.01;74.50
71175;DHT22;58876;51.994;4.472;2022-12-18T09:04:58;-2.01;74.64
71175;DHT22;58876;51.994;4.472;2022-12-18T09:07:23;-2.05;74.76
71175;DHT22;58876;51.994;4.472;2022-12-18T09:09:49;-1.94;74.53
71175;DHT22;58876;51.994;4.472;2022-12-18T09:12:14;-1.89;74.57
71175;DHT22;58876;51.994;4.472;2022-12-18T09:14:40;-1.83;73.90
71175;DHT22;58876;51.994;4.472;2022-12-18T09:17:05;-1.87;74.07
71175;DHT22;58876;51.994;4.472;2022-12-18T09:19:31;-1.93;74.33
71175;DHT22;58876;51.994;4.472;2022-12-18T09:21:56;-1.87;74.55
71175;DHT22;58876;51.994;4.472;2022-12-18T09:24:25;-1.86;74.32
71175;DHT22;58876;51.994;4.472;2022-12-18T09:26:53;-1.74;74.47
71175;DHT22;58876;51.994;4.472;2022-12-18T09:29:20;-1.76;74.34
71175;DHT22;58876;51.994;4.472;2022-12-18T09:31:46;-1.71;74.44
71175;DHT22;58876;51.994;4.472;2022-12-18T09:34:11;-1.67;74.16
71175;DHT22;58876;51.994;4.472;2022-12-18T09:36:38;-1.64;74.07
71175;DHT22;58876;51.994;4.472;2022-12-18T09:39:03;-1.58;74.60
71175;DHT22;58876;51.994;4.472;2022-12-18T09:44:02;-1.45;74.08
71175;DHT22;58876;51.994;4.472;2022-12-18T09:46:35;-1.39;74.47
71175;DHT22;58876;51.994;4.472;2022-12-18T09:49:07;-1.56;74.36
71175;DHT22;58876;51.994;4.472;2022-12-18T09:51:42;-1.50;74.63
71175;DHT22;58876;51.994;4.472;2022-12-18T09:54:18;-1.42;74.92
71175;DHT22;58876;51.994;4.472;2022-12-18T09:56:45;-1.32;74.22
71175;DHT22;58876;51.994;4.472;2022-12-18T09:59:22;-1.32;74.11
71175;DHT22;58876;51.994;4.472;2022-12-18T10:01:48;-1.29;74.38
71175;DHT22;58876;51.994;4.472;2022-12-18T10:04:14;-1.19;74.33
71175;DHT22;58876;51.994;4.472;2022-12-18T10:06:51;-1.19;74.08
71175;DHT22;58876;51.994;4.472;2022-12-18T10:14:51;-1.05;73.59
71175;DHT22;58876;51.994;4.472;2022-12-18T10:17:45;-0.92;73.47
71175;DHT22;58876;51.994;4.472;2022-12-18T10:20:34;-0.88;73.41
71175;DHT22;58876;51.994;4.472;2022-12-18T10:23:26;-0.83;73.01
71175;DHT22;58876;51.994;4.472;2022-12-18T10:26:05;-0.81;73.39
71175;DHT22;58876;51.994;4.472;2022-12-18T10:28:34;-0.76;72.83
71175;DHT22;58876;51.994;4.472;2022-12-18T10:31:01;-0.79;72.37
71175;DHT22;58876;51.994;4.472;2022-12-18T10:33:33;-0.76;73.00
71175;DHT22;58876;51.994;4.472;2022-12-18T10:35:59;-0.64;72.91
71175;DHT22;58876;51.994;4.472;2022-12-18T10:38:30;-0.60;73.20
71175;DHT22;58876;51.994;4.472;2022-12-18T10:41:02;-0.50;72.46
71175;DHT22;58876;51.994;4.472;2022-12-18T10:46:17;-0.52;72.95
71175;DHT22;58876;51.994;4.472;2022-12-18T10:51:39;-0.37;72.98
71175;DHT22;58876;51.994;4.472;2022-12-18T10:54:16;-0.36;72.29
71175;DHT22;58876;51.994;4.472;2022-12-18T10:56:42;-0.34;72.32
71175;DHT22;58876;51.994;4.472;2022-12-18T10:59:11;-0.34;72.41
71175;DHT22;58876;51.994;4.472;2022-12-18T11:01:57;-0.29;73.08
71175;DHT22;58876;51.994;4.472;2022-12-18T11:04:32;-0.15;72.87
71175;DHT22;58876;51.994;4.472;2022-12-18T11:07:04;-0.25;72.28
71175;DHT22;58876;51.994;4.472;2022-12-18T11:09:31;-0.08;71.93
71175;DHT22;58876;51.994;4.472;2022-12-18T11:12:01;-0.06;71.94
71175;DHT22;58876;51.994;4.472;2022-12-18T11:14:31;-0.03;71.45
71175;DHT22;58876;51.994;4.472;2022-12-18T11:16:59;0.05;71.81
71175;DHT22;58876;51.994;4.472;2022-12-18T11:21:57;0.12;71.55
71175;DHT22;58876;51.994;4.472;2022-12-18T11:24:35;0.15;71.19
71175;DHT22;58876;51.994;4.472;2022-12-18T11:27:06;0.15;71.34
71175;DHT22;58876;51.994;4.472;2022-12-18T11:29:40;0.19;71.77
71175;DHT22;58876;51.994;4.472;2022-12-18T11:32:30;0.19;71.48
71175;DHT22;58876;51.994;4.472;2022-12-18T11:35:25;0.15;70.91
71175;DHT22;58876;51.994;4.472;2022-12-18T11:38:02;0.03;71.41
71175;DHT22;58876;51.994;4.472;2022-12-18T11:40:36;-0.01;71.44
71175;DHT22;58876;51.994;4.472;2022-12-18T11:43:13;-0.02;71.42
71175;DHT22;58876;51.994;4.472;2022-12-18T11:45:50;-0.13;71.53
71175;DHT22;58876;51.994;4.472;2022-12-18T11:48:30;0.01;72.31
71175;DHT22;58876;51.994;4.472;2022-12-18T11:51:02;0.09;72.10
71175;DHT22;58876;51.994;4.472;2022-12-18T11:53:29;0.16;71.99
71175;DHT22;58876;51.994;4.472;2022-12-18T11:56:06;0.10;71.81
71175;DHT22;58876;51.994;4.472;2022-12-18T11:58:44;0.12;71.79
71175;DHT22;58876;51.994;4.472;2022-12-18T12:07:12;0.35;71.78
71175;DHT22;58876;51.994;4.472;2022-12-18T12:18:32;0.50;70.58
71175;DHT22;58876;51.994;4.472;2022-12-18T12:23:56;0.57;70.63
71175;DHT22;58876;51.994;4.472;2022-12-18T12:26:45;0.47;71.03
71175;DHT22;58876;51.994;4.472;2022-12-18T12:32:16;0.52;70.75
71175;DHT22;58876;51.994;4.472;2022-12-18T12:35:12;0.56;70.86
71175;DHT22;58876;51.994;4.472;2022-12-18T12:38:21;0.63;71.07
71175;DHT22;58876;51.994;4.472;2022-12-18T12:41:08;0.68;70.35
71175;DHT22;58876;51.994;4.472;2022-12-18T12:43:58;0.64;70.17
71175;DHT22;58876;51.994;4.472;2022-12-18T12:46:26;0.49;70.82
71175;DHT22;58876;51.994;4.472;2022-12-18T12:49:04;0.49;70.73
71175;DHT22;58876;51.994;4.472;2022-12-18T12:51:41;0.61;71.01
71175;DHT22;58876;51.994;4.472;2022-12-18T12:54:23;0.54;71.41
71175;DHT22;58876;51.994;4.472;2022-12-18T12:57:09;0.59;71.41
71175;DHT22;58876;51.994;4.472;2022-12-18T13:07:56;0.50;71.01
71175;DHT22;58876;51.994;4.472;2022-12-18T13:10:26;0.61;70.82
71175;DHT22;58876;51.994;4.472;2022-12-18T13:12:58;0.60;70.59
71175;DHT22;58876;51.994;4.472;2022-12-18T13:15:34;0.67;70.60
71175;DHT22;58876;51.994;4.472;2022-12-18T13:20:47;0.80;70.19
71175;DHT22;58876;51.994;4.472;2022-12-18T13:31:00;0.83;69.56
71175;DHT22;58876;51.994;4.472;2022-12-18T13:36:04;0.70;70.59
71175;DHT22;58876;51.994;4.472;2022-12-18T13:38:36;0.66;70.65
71175;DHT22;58876;51.994;4.472;2022-12-18T13:43:46;0.74;71.14
71175;DHT22;58876;51.994;4.472;2022-12-18T13:46:41;0.71;71.01
71175;DHT22;58876;51.994;4.472;2022-12-18T13:51:49;0.77;70.89
71175;DHT22;58876;51.994;4.472;2022-12-18T13:54:36;0.88;70.66
71175;DHT22;58876;51.994;4.472;2022-12-18T13:57:04;0.97;70.83
71175;DHT22;58876;51.994;4.472;2022-12-18T13:59:38;0.95;70.45
71175;DHT22;58876;51.994;4.472;2022-12-18T14:02:16;0.84;70.91
71175;DHT22;58876;51.994;4.472;2022-12-18T14:04:45;0.85;71.12
71175;DHT22;58876;51.994;4.472;2022-12-18T14:07:18;0.84;70.96
71175;DHT22;58876;51.994;4.472;2022-12-18T14:09:50;0.80;71.33
71175;DHT22;58876;51.994;4.472;2022-12-18T14:12:34;0.80;71.14
71175;DHT22;58876;51.994;4.472;2022-12-18T14:18:09;0.70;71.85
71175;DHT22;58876;51.994;4.472;2022-12-18T14:20:43;0.83;72.11
71175;DHT22;58876;51.994;4.472;2022-12-18T14:25:59;0.78;71.99
71175;DHT22;58876;51.994;4.472;2022-12-18T14:28:25;0.81;71.91
71175;DHT22;58876;51.994;4.472;2022-12-18T14:30:52;0.87;71.66
71175;DHT22;58876;51.994;4.472;2022-12-18T14:33:21;0.78;71.77
71175;DHT22;58876;51.994;4.472;2022-12-18T14:35:57;0.84;71.78
71175;DHT22;58876;51.994;4.472;2022-12-18T14:38:30;0.80;71.90
71175;DHT22;58876;51.994;4.472;2022-12-18T14:41:10;0.66;72.39
71175;DHT22;58876;51.994;4.472;2022-12-18T14:43:39;0.71;72.08
71175;DHT22;58876;51.994;4.472;2022-12-18T14:48:56;0.67;72.64
71175;DHT22;58876;51.994;4.472;2022-12-18T14:51:27;0.81;72.14
71175;DHT22;58876;51.994;4.472;2022-12-18T14:53:57;0.73;71.92
71175;DHT22;58876;51.994;4.472;2022-12-18T14:56:32;0.73;72.52
71175;DHT22;58876;51.994;4.472;2022-12-18T14:59:20;0.73;72.11
71175;DHT22;58876;51.994;4.472;2022-12-18T15:04:41;0.68;72.57
71175;DHT22;58876;51.994;4.472;2022-12-18T15:07:19;0.74;72.84
71175;DHT22;58876;51.994;4.472;2022-12-18T15:10:17;0.83;72.25
71175;DHT22;58876;51.994;4.472;2022-12-18T15:12:49;0.87;72.24
71175;DHT22;58876;51.994;4.472;2022-12-18T15:18:13;0.81;72.45
71175;DHT22;58876;51.994;4.472;2022-12-18T15:23:33;0.90;71.94
71175;DHT22;58876;51.994;4.472;2022-12-18T15:28:39;0.91;71.87
71175;DHT22;58876;51.994;4.472;2022-12-18T15:33:47;0.80;71.50
71175;DHT22;58876;51.994;4.472;2022-12-18T15:36:27;0.80;72.20
71175;DHT22;58876;51.994;4.472;2022-12-18T15:38:55;0.84;71.97
71175;DHT22;58876;51.994;4.472;2022-12-18T15:41:22;0.98;71.56
71175;DHT22;58876;51.994;4.472;2022-12-18T15:43:49;0.97;70.98
71175;DHT22;58876;51.994;4.472;2022-12-18T15:46:18;0.94;71.45
71175;DHT22;58876;51.994;4.472;2022-12-18T15:48:49;1.02;71.29
71175;DHT22;58876;51.994;4.472;2022-12-18T15:51:35;1.05;70.86
71175;DHT22;58876;51.994;4.472;2022-12-18T15:54:04;0.98;70.39
71175;DHT22;58876;51.994;4.472;2022-12-18T15:56:31;0.87;70.64
71175;DHT22;58876;51.994;4.472;2022-12-18T15:59:19;1.02;70.19
71175;DHT22;58876;51.994;4.472;2022-12-18T16:01:51;1.04;69.96
71175;DHT22;58876;51.994;4.472;2022-12-18T16:04:20;0.90;70.29
71175;DHT22;58876;51.994;4.472;2022-12-18T16:06:46;0.98;70.92
71175;DHT22;58876;51.994;4.472;2022-12-18T16:09:11;0.94;70.53
71175;DHT22;58876;51.994;4.472;2022-12-18T16:11:41;0.97;70.52
71175;DHT22;58876;51.994;4.472;2022-12-18T16:16:47;0.99;70.36
71175;DHT22;58876;51.994;4.472;2022-12-18T16:19:13;1.05;70.45
71175;DHT22;58876;51.994;4.472;2022-12-18T16:21:39;1.09;70.15
71175;DHT22;58876;51.994;4.472;2022-12-18T16:24:05;1.05;70.19
71175;DHT22;58876;51.994;4.472;2022-12-18T16:26:33;1.02;70.38
71175;DHT22;58876;51.994;4.472;2022-12-18T16:28:59;0.98;71.02
71175;DHT22;58876;51.994;4.472;2022-12-18T16:31:24;1.07;70.70
71175;DHT22;58876;51.994;4.472;2022-12-18T16:33:49;1.12;70.55
71175;DHT22;58876;51.994;4.472;2022-12-18T16:36:34;1.09;70.37
71175;DHT22;58876;51.994;4.472;2022-12-18T16:38:59;1.09;70.73
71175;DHT22;58876;51.994;4.472;2022-12-18T16:41:25;1.09;71.06
71175;DHT22;58876;51.994;4.472;2022-12-18T16:43:56;0.98;70.94
71175;DHT22;58876;51.994;4.472;2022-12-18T16:46:22;1.15;70.94
71175;DHT22;58876;51.994;4.472;2022-12-18T16:48:47;1.05;71.24
71175;DHT22;58876;51.994;4.472;2022-12-18T16:51:13;1.19;70.79
71175;DHT22;58876;51.994;4.472;2022-12-18T16:53:38;1.22;70.67
71175;DHT22;58876;51.994;4.472;2022-12-18T16:56:04;1.11;71.20
71175;DHT22;58876;51.994;4.472;2022-12-18T16:58:29;1.19;70.91
71175;DHT22;58876;51.994;4.472;2022-12-18T17:00:55;1.21;70.98
71175;DHT22;58876;51.994;4.472;2022-12-18T17:03:20;1.11;71.70
71175;DHT22;58876;51.994;4.472;2022-12-18T17:05:45;1.08;71.26
71175;DHT22;58876;51.994;4.472;2022-12-18T17:08:11;1.14;71.58
71175;DHT22;58876;51.994;4.472;2022-12-18T17:10:36;1.04;71.80
71175;DHT22;58876;51.994;4.472;2022-12-18T17:13:02;1.02;72.27
71175;DHT22;58876;51.994;4.472;2022-12-18T17:15:27;0.98;72.21
71175;DHT22;58876;51.994;4.472;2022-12-18T17:17:53;1.04;72.42
71175;DHT22;58876;51.994;4.472;2022-12-18T17:20:18;0.97;72.45
71175;DHT22;58876;51.994;4.472;2022-12-18T17:22:43;1.19;72.33
71175;DHT22;58876;51.994;4.472;2022-12-18T17:25:09;1.27;72.09
71175;DHT22;58876;51.994;4.472;2022-12-18T17:27:34;1.24;71.76
71175;DHT22;58876;51.994;4.472;2022-12-18T17:30:00;1.25;71.65
71175;DHT22;58876;51.994;4.472;2022-12-18T17:32:26;1.27;71.89
71175;DHT22;58876;51.994;4.472;2022-12-18T17:34:52;1.43;71.82
71175;DHT22;58876;51.994;4.472;2022-12-18T17:37:17;1.36;71.76
71175;DHT22;58876;51.994;4.472;2022-12-18T17:39:43;1.21;72.04
71175;DHT22;58876;51.994;4.472;2022-12-18T17:42:08;1.21;72.31
71175;DHT22;58876;51.994;4.472;2022-12-18T17:44:35;1.22;72.27
71175;DHT22;58876;51.994;4.472;2022-12-18T17:47:02;1.29;72.16
71175;DHT22;58876;51.994;4.472;2022-12-18T17:49:28;1.34;71.75
71175;DHT22;58876;51.994;4.472;2022-12-18T17:51:53;1.25;71.96
71175;DHT22;58876;51.994;4.472;2022-12-18T17:54:19;1.31;72.23